This is the latest recevied weather packets stored in our database for station/object W0WC. If no packets are shown the sender has not sent any weather packets the latest 10 day(s).
| Time | Temp. | Humidity | Pressure | Rain* | Wind** | Luminosity | Snow |
|---|---|---|---|---|---|---|---|
| 1778171204 | 17.22° C | 41% | 1018.9 hPa | 0 mm | - | 709 W/m² | - |
| 1778170900 | 17.22° C | 40% | 1019.1 hPa | 0 mm | - | 700 W/m² | - |
| 1778170597 | 17.78° C | 40% | 1019 hPa | 0 mm | - | 691 W/m² | - |
| 1778170293 | 17.22° C | 41% | 1019.2 hPa | 0 mm | - | 681 W/m² | - |
| 1778169989 | 17.22° C | 42% | 1018.9 hPa | 0 mm | - | 671 W/m² | - |
| 1778169686 | 17.78° C | 40% | 1019.1 hPa | 0 mm | - | 661 W/m² | - |
| 1778169382 | 17.22° C | 43% | 1019.1 hPa | 0 mm | - | 650 W/m² | - |
| 1778169079 | 17.22° C | 40% | 1019.1 hPa | 0 mm | - | 640 W/m² | - |
| 1778168775 | 16.67° C | 43% | 1019 hPa | 0 mm | - | 629 W/m² | - |
| 1778168472 | 16.67° C | 42% | 1019.2 hPa | 0 mm | - | 618 W/m² | - |
| 1778168164 | 17.22° C | 40% | 1019.1 hPa | 0 mm | - | 605 W/m² | - |
| 1778167861 | 16.67° C | 43% | 1019.3 hPa | 0 mm | - | 592 W/m² | - |
| 1778167556 | 16.67° C | 42% | 1019.2 hPa | 0 mm | - | 579 W/m² | - |
| 1778167252 | 16.11° C | 43% | 1019.3 hPa | 0 mm | - | 566 W/m² | - |
| 1778166949 | 16.11° C | 43% | 1019.4 hPa | 0 mm | - | 552 W/m² | - |
| 1778166645 | 16.11° C | 44% | 1019.6 hPa | 0 mm | - | 539 W/m² | - |
| 1778166343 | 16.67° C | 42% | 1019.5 hPa | 0 mm | - | 525 W/m² | - |
| 1778166039 | 16.11° C | 43% | 1019.6 hPa | 0 mm | - | 510 W/m² | - |
| 1778165734 | 15.56° C | 44% | 1019.5 hPa | 0 mm | - | 496 W/m² | - |
| 1778165432 | 15.56° C | 43% | 1019.5 hPa | 0 mm | - | 482 W/m² | - |
| 1778165128 | 16.11° C | 43% | 1019.4 hPa | 0 mm | - | 465 W/m² | - |
| 1778164826 | 15.56° C | 45% | 1019.5 hPa | 0 mm | - | 450 W/m² | - |
| 1778164523 | 15.56° C | 46% | 1019.4 hPa | 0 mm | - | 435 W/m² | - |
| 1778164221 | 15° C | 47% | 1019.5 hPa | 0 mm | - | 422 W/m² | - |
| 1778163915 | 15° C | 49% | 1019.4 hPa | 0 mm | - | 403 W/m² | - |
* Rain latest hour (hover to see other rain measurements)
** Current wind speed in m/s (hover to see current wind gust speed)